sensor_id;sensor_type;location;lat;lon;timestamp;pressure;altitude;pressure_sealevel;temperature;humidity
43153;BME280;28756;49.064;9.290;2022-11-09T00:01:01;98685.34;;;8.85;100.00
43153;BME280;28756;49.064;9.290;2022-11-09T00:03:27;98683.81;;;8.97;100.00
43153;BME280;28756;49.064;9.290;2022-11-09T00:05:55;98677.56;;;9.18;100.00
43153;BME280;28756;49.064;9.290;2022-11-09T00:08:21;98672.81;;;9.40;100.00
43153;BME280;28756;49.064;9.290;2022-11-09T00:10:46;98683.25;;;9.55;100.00
43153;BME280;28756;49.064;9.290;2022-11-09T00:13:12;98681.47;;;9.71;100.00
43153;BME280;28756;49.064;9.290;2022-11-09T00:15:38;98676.31;;;9.86;100.00
43153;BME280;28756;49.064;9.290;2022-11-09T00:18:03;98679.28;;;9.94;100.00
43153;BME280;28756;49.064;9.290;2022-11-09T00:20:29;98685.03;;;9.99;100.00
43153;BME280;28756;49.064;9.290;2022-11-09T00:22:55;98688.22;;;10.04;100.00
43153;BME280;28756;49.064;9.290;2022-11-09T00:25:21;98683.03;;;10.04;100.00
43153;BME280;28756;49.064;9.290;2022-11-09T00:27:47;98669.78;;;10.09;100.00
43153;BME280;28756;49.064;9.290;2022-11-09T00:30:13;98666.81;;;10.15;100.00
43153;BME280;28756;49.064;9.290;2022-11-09T00:32:39;98664.22;;;10.15;100.00
43153;BME280;28756;49.064;9.290;2022-11-09T00:35:05;98660.19;;;10.09;100.00
43153;BME280;28756;49.064;9.290;2022-11-09T00:37:31;98666.69;;;10.02;100.00
43153;BME280;28756;49.064;9.290;2022-11-09T00:39:56;98665.28;;;9.96;100.00
43153;BME280;28756;49.064;9.290;2022-11-09T00:42:22;98674.56;;;9.86;100.00
43153;BME280;28756;49.064;9.290;2022-11-09T00:44:48;98668.78;;;9.81;100.00
43153;BME280;28756;49.064;9.290;2022-11-09T00:47:14;98665.53;;;9.77;100.00
43153;BME280;28756;49.064;9.290;2022-11-09T00:49:39;98673.69;;;9.71;100.00
43153;BME280;28756;49.064;9.290;2022-11-09T00:52:05;98675.88;;;9.63;100.00
43153;BME280;28756;49.064;9.290;2022-11-09T00:54:31;98678.72;;;9.58;100.00
43153;BME280;28756;49.064;9.290;2022-11-09T00:56:56;98675.38;;;9.56;100.00
43153;BME280;28756;49.064;9.290;2022-11-09T00:59:22;98679.00;;;9.54;100.00
43153;BME280;28756;49.064;9.290;2022-11-09T01:01:48;98672.78;;;9.56;100.00
43153;BME280;28756;49.064;9.290;2022-11-09T01:04:13;98667.16;;;9.64;100.00
43153;BME280;28756;49.064;9.290;2022-11-09T01:06:39;98676.66;;;9.79;100.00
43153;BME280;28756;49.064;9.290;2022-11-09T01:09:05;98665.91;;;9.86;100.00
43153;BME280;28756;49.064;9.290;2022-11-09T01:11:30;98664.34;;;9.83;100.00
43153;BME280;28756;49.064;9.290;2022-11-09T01:13:58;98658.28;;;9.83;100.00
43153;BME280;28756;49.064;9.290;2022-11-09T01:16:25;98657.31;;;9.85;100.00
43153;BME280;28756;49.064;9.290;2022-11-09T01:18:56;98653.94;;;9.83;100.00
43153;BME280;28756;49.064;9.290;2022-11-09T01:21:23;98656.66;;;9.82;100.00
43153;BME280;28756;49.064;9.290;2022-11-09T01:23:49;98645.41;;;9.81;100.00
43153;BME280;28756;49.064;9.290;2022-11-09T01:26:15;98651.75;;;9.91;100.00
43153;BME280;28756;49.064;9.290;2022-11-09T01:28:41;98649.78;;;9.95;100.00
43153;BME280;28756;49.064;9.290;2022-11-09T01:31:13;98659.91;;;10.00;100.00
43153;BME280;28756;49.064;9.290;2022-11-09T01:33:39;98668.38;;;10.03;100.00
43153;BME280;28756;49.064;9.290;2022-11-09T01:36:12;98667.47;;;10.19;100.00
43153;BME280;28756;49.064;9.290;2022-11-09T01:38:38;98666.72;;;10.31;100.00
43153;BME280;28756;49.064;9.290;2022-11-09T01:41:06;98671.50;;;10.39;100.00
43153;BME280;28756;49.064;9.290;2022-11-09T01:43:33;98675.16;;;10.35;100.00
43153;BME280;28756;49.064;9.290;2022-11-09T01:46:17;98681.31;;;10.34;100.00
43153;BME280;28756;49.064;9.290;2022-11-09T01:48:50;98677.19;;;10.30;100.00
43153;BME280;28756;49.064;9.290;2022-11-09T01:51:30;98683.53;;;10.25;100.00
43153;BME280;28756;49.064;9.290;2022-11-09T01:54:19;98685.53;;;10.20;100.00
43153;BME280;28756;49.064;9.290;2022-11-09T01:56:50;98685.75;;;10.17;100.00
43153;BME280;28756;49.064;9.290;2022-11-09T01:59:23;98690.19;;;10.15;100.00
43153;BME280;28756;49.064;9.290;2022-11-09T02:01:51;98692.78;;;10.15;100.00
43153;BME280;28756;49.064;9.290;2022-11-09T02:04:33;98714.41;;;10.16;100.00
43153;BME280;28756;49.064;9.290;2022-11-09T02:07:00;98709.91;;;10.34;100.00
43153;BME280;28756;49.064;9.290;2022-11-09T02:09:41;98705.97;;;10.26;100.00
43153;BME280;28756;49.064;9.290;2022-11-09T02:12:08;98704.66;;;10.19;100.00
43153;BME280;28756;49.064;9.290;2022-11-09T02:14:34;98706.81;;;10.13;100.00
43153;BME280;28756;49.064;9.290;2022-11-09T02:17:01;98702.78;;;10.07;100.00
43153;BME280;28756;49.064;9.290;2022-11-09T02:19:27;98703.97;;;10.01;100.00
43153;BME280;28756;49.064;9.290;2022-11-09T02:21:52;98706.03;;;9.96;100.00
43153;BME280;28756;49.064;9.290;2022-11-09T02:24:18;98701.84;;;9.93;100.00
43153;BME280;28756;49.064;9.290;2022-11-09T02:26:50;98707.38;;;9.87;100.00
43153;BME280;28756;49.064;9.290;2022-11-09T02:29:24;98714.50;;;9.84;100.00
43153;BME280;28756;49.064;9.290;2022-11-09T02:31:59;98713.38;;;9.73;100.00
43153;BME280;28756;49.064;9.290;2022-11-09T02:34:27;98729.03;;;9.72;100.00
43153;BME280;28756;49.064;9.290;2022-11-09T02:36:53;98723.00;;;9.71;100.00
43153;BME280;28756;49.064;9.290;2022-11-09T02:39:21;98724.94;;;9.68;100.00
43153;BME280;28756;49.064;9.290;2022-11-09T02:41:59;98719.66;;;9.69;100.00
43153;BME280;28756;49.064;9.290;2022-11-09T02:44:27;98715.06;;;9.74;100.00
43153;BME280;28756;49.064;9.290;2022-11-09T02:46:54;98718.75;;;9.70;100.00
43153;BME280;28756;49.064;9.290;2022-11-09T02:49:20;98731.72;;;9.70;100.00
43153;BME280;28756;49.064;9.290;2022-11-09T02:51:46;98723.28;;;9.67;100.00
43153;BME280;28756;49.064;9.290;2022-11-09T02:54:12;98734.56;;;9.66;100.00
43153;BME280;28756;49.064;9.290;2022-11-09T02:56:38;98743.22;;;9.66;100.00
43153;BME280;28756;49.064;9.290;2022-11-09T02:59:03;98744.28;;;9.62;100.00
43153;BME280;28756;49.064;9.290;2022-11-09T03:01:30;98759.97;;;9.60;100.00
43153;BME280;28756;49.064;9.290;2022-11-09T03:03:55;98762.63;;;9.59;100.00
43153;BME280;28756;49.064;9.290;2022-11-09T03:06:21;98770.59;;;9.56;100.00
43153;BME280;28756;49.064;9.290;2022-11-09T03:09:08;98773.34;;;9.53;100.00
43153;BME280;28756;49.064;9.290;2022-11-09T03:11:35;98783.16;;;9.47;100.00
43153;BME280;28756;49.064;9.290;2022-11-09T03:14:02;98787.25;;;9.36;100.00
43153;BME280;28756;49.064;9.290;2022-11-09T03:16:28;98798.38;;;9.22;100.00
43153;BME280;28756;49.064;9.290;2022-11-09T03:18:54;98793.13;;;9.23;100.00
43153;BME280;28756;49.064;9.290;2022-11-09T03:21:21;98790.69;;;9.20;100.00
43153;BME280;28756;49.064;9.290;2022-11-09T03:23:48;98791.69;;;9.18;100.00
43153;BME280;28756;49.064;9.290;2022-11-09T03:26:14;98802.31;;;9.13;100.00
43153;BME280;28756;49.064;9.290;2022-11-09T03:28:40;98803.22;;;9.12;100.00
43153;BME280;28756;49.064;9.290;2022-11-09T03:31:06;98801.47;;;9.12;100.00
43153;BME280;28756;49.064;9.290;2022-11-09T03:33:32;98804.16;;;9.11;100.00
43153;BME280;28756;49.064;9.290;2022-11-09T03:35:58;98796.44;;;9.09;100.00
43153;BME280;28756;49.064;9.290;2022-11-09T03:38:24;98802.56;;;9.08;100.00
43153;BME280;28756;49.064;9.290;2022-11-09T03:40:50;98808.66;;;9.07;100.00
43153;BME280;28756;49.064;9.290;2022-11-09T03:43:15;98806.16;;;9.06;100.00
43153;BME280;28756;49.064;9.290;2022-11-09T03:45:41;98801.13;;;9.03;100.00
43153;BME280;28756;49.064;9.290;2022-11-09T03:48:07;98796.03;;;9.01;100.00
43153;BME280;28756;49.064;9.290;2022-11-09T03:50:34;98800.34;;;9.00;100.00
43153;BME280;28756;49.064;9.290;2022-11-09T03:53:01;98795.16;;;9.00;100.00
43153;BME280;28756;49.064;9.290;2022-11-09T03:55:27;98801.31;;;8.99;100.00
43153;BME280;28756;49.064;9.290;2022-11-09T03:57:53;98806.41;;;9.01;100.00
43153;BME280;28756;49.064;9.290;2022-11-09T04:00:21;98812.50;;;9.00;100.00
43153;BME280;28756;49.064;9.290;2022-11-09T04:02:47;98808.22;;;8.99;100.00
43153;BME280;28756;49.064;9.290;2022-11-09T04:05:13;98804.72;;;9.00;100.00
43153;BME280;28756;49.064;9.290;2022-11-09T04:07:40;98798.72;;;8.99;100.00
43153;BME280;28756;49.064;9.290;2022-11-09T04:10:10;98793.56;;;8.98;100.00
43153;BME280;28756;49.064;9.290;2022-11-09T04:12:36;98801.53;;;8.95;100.00
43153;BME280;28756;49.064;9.290;2022-11-09T04:15:02;98799.84;;;8.94;100.00
43153;BME280;28756;49.064;9.290;2022-11-09T04:17:27;98801.69;;;8.92;100.00
43153;BME280;28756;49.064;9.290;2022-11-09T04:19:53;98795.75;;;8.90;100.00
43153;BME280;28756;49.064;9.290;2022-11-09T04:22:19;98798.28;;;8.91;100.00
43153;BME280;28756;49.064;9.290;2022-11-09T04:24:45;98797.50;;;8.89;100.00
43153;BME280;28756;49.064;9.290;2022-11-09T04:27:10;98804.38;;;8.90;100.00
43153;BME280;28756;49.064;9.290;2022-11-09T04:29:36;98800.25;;;8.86;100.00
43153;BME280;28756;49.064;9.290;2022-11-09T04:32:02;98800.34;;;8.84;100.00
43153;BME280;28756;49.064;9.290;2022-11-09T04:34:28;98819.41;;;8.83;100.00
43153;BME280;28756;49.064;9.290;2022-11-09T04:36:53;98807.19;;;8.85;100.00
43153;BME280;28756;49.064;9.290;2022-11-09T04:39:19;98814.22;;;8.83;100.00
43153;BME280;28756;49.064;9.290;2022-11-09T04:41:45;98820.22;;;8.84;100.00
43153;BME280;28756;49.064;9.290;2022-11-09T04:44:10;98822.66;;;8.87;100.00
43153;BME280;28756;49.064;9.290;2022-11-09T04:46:36;98818.41;;;8.86;100.00
43153;BME280;28756;49.064;9.290;2022-11-09T04:49:02;98828.72;;;8.88;100.00
43153;BME280;28756;49.064;9.290;2022-11-09T04:51:28;98826.13;;;8.88;100.00
43153;BME280;28756;49.064;9.290;2022-11-09T04:53:53;98828.63;;;8.89;100.00
43153;BME280;28756;49.064;9.290;2022-11-09T04:56:20;98824.19;;;8.91;100.00
43153;BME280;28756;49.064;9.290;2022-11-09T04:58:46;98837.00;;;8.94;100.00
43153;BME280;28756;49.064;9.290;2022-11-09T05:01:16;98829.13;;;8.96;100.00
43153;BME280;28756;49.064;9.290;2022-11-09T05:03:43;98833.47;;;8.95;100.00
43153;BME280;28756;49.064;9.290;2022-11-09T05:06:08;98820.53;;;8.95;100.00
43153;BME280;28756;49.064;9.290;2022-11-09T05:08:54;98825.78;;;8.94;100.00
43153;BME280;28756;49.064;9.290;2022-11-09T05:11:29;98817.25;;;8.92;100.00
43153;BME280;28756;49.064;9.290;2022-11-09T05:13:58;98818.34;;;8.88;100.00
43153;BME280;28756;49.064;9.290;2022-11-09T05:16:44;98819.50;;;8.82;100.00
43153;BME280;28756;49.064;9.290;2022-11-09T05:19:10;98823.81;;;8.81;100.00
43153;BME280;28756;49.064;9.290;2022-11-09T05:21:39;98818.56;;;8.83;100.00
43153;BME280;28756;49.064;9.290;2022-11-09T05:24:07;98819.41;;;8.83;100.00
43153;BME280;28756;49.064;9.290;2022-11-09T05:26:40;98814.97;;;8.85;100.00
43153;BME280;28756;49.064;9.290;2022-11-09T05:29:10;98813.22;;;8.86;100.00
43153;BME280;28756;49.064;9.290;2022-11-09T05:31:40;98813.16;;;8.88;100.00
43153;BME280;28756;49.064;9.290;2022-11-09T05:34:11;98827.53;;;8.93;100.00
43153;BME280;28756;49.064;9.290;2022-11-09T05:36:40;98812.75;;;8.95;100.00
43153;BME280;28756;49.064;9.290;2022-11-09T05:39:06;98811.06;;;8.94;100.00
43153;BME280;28756;49.064;9.290;2022-11-09T05:41:34;98816.91;;;8.98;100.00
43153;BME280;28756;49.064;9.290;2022-11-09T05:44:06;98808.00;;;9.04;100.00
43153;BME280;28756;49.064;9.290;2022-11-09T05:46:31;98819.03;;;9.07;100.00
43153;BME280;28756;49.064;9.290;2022-11-09T05:48:58;98811.16;;;9.09;100.00
43153;BME280;28756;49.064;9.290;2022-11-09T05:51:24;98812.84;;;9.10;100.00
43153;BME280;28756;49.064;9.290;2022-11-09T05:53:50;98807.66;;;9.10;100.00
43153;BME280;28756;49.064;9.290;2022-11-09T05:56:16;98812.03;;;9.09;100.00
43153;BME280;28756;49.064;9.290;2022-11-09T05:58:42;98813.59;;;9.12;100.00
43153;BME280;28756;49.064;9.290;2022-11-09T06:01:16;98807.25;;;9.18;100.00
43153;BME280;28756;49.064;9.290;2022-11-09T06:03:43;98809.91;;;9.16;100.00
43153;BME280;28756;49.064;9.290;2022-11-09T06:06:14;98803.66;;;9.20;100.00
43153;BME280;28756;49.064;9.290;2022-11-09T06:08:40;98816.63;;;9.20;100.00
43153;BME280;28756;49.064;9.290;2022-11-09T06:11:09;98817.63;;;9.18;100.00
43153;BME280;28756;49.064;9.290;2022-11-09T06:13:36;98807.50;;;9.13;100.00
43153;BME280;28756;49.064;9.290;2022-11-09T06:16:04;98817.88;;;9.13;100.00
43153;BME280;28756;49.064;9.290;2022-11-09T06:18:49;98814.53;;;9.11;100.00
43153;BME280;28756;49.064;9.290;2022-11-09T06:21:15;98814.53;;;9.11;100.00
43153;BME280;28756;49.064;9.290;2022-11-09T06:23:41;98820.47;;;9.13;100.00
43153;BME280;28756;49.064;9.290;2022-11-09T06:26:09;98811.34;;;9.22;100.00
43153;BME280;28756;49.064;9.290;2022-11-09T06:28:36;98828.03;;;9.33;100.00
43153;BME280;28756;49.064;9.290;2022-11-09T06:31:05;98831.47;;;9.34;100.00
43153;BME280;28756;49.064;9.290;2022-11-09T06:33:33;98841.09;;;9.32;100.00
43153;BME280;28756;49.064;9.290;2022-11-09T06:35:59;98844.59;;;9.31;100.00
43153;BME280;28756;49.064;9.290;2022-11-09T06:38:26;98846.44;;;9.29;100.00
43153;BME280;28756;49.064;9.290;2022-11-09T06:40:54;98863.59;;;9.31;100.00
43153;BME280;28756;49.064;9.290;2022-11-09T06:43:21;98859.25;;;9.32;100.00
43153;BME280;28756;49.064;9.290;2022-11-09T06:45:47;98865.38;;;9.31;100.00
43153;BME280;28756;49.064;9.290;2022-11-09T06:48:13;98873.16;;;9.31;100.00
43153;BME280;28756;49.064;9.290;2022-11-09T06:50:39;98875.84;;;9.29;100.00
43153;BME280;28756;49.064;9.290;2022-11-09T06:53:08;98881.84;;;9.30;100.00
43153;BME280;28756;49.064;9.290;2022-11-09T06:55:36;98893.91;;;9.31;100.00
43153;BME280;28756;49.064;9.290;2022-11-09T06:58:10;98911.53;;;9.24;100.00
43153;BME280;28756;49.064;9.290;2022-11-09T07:00:37;98917.97;;;9.17;100.00
43153;BME280;28756;49.064;9.290;2022-11-09T07:03:06;98934.53;;;9.14;100.00
43153;BME280;28756;49.064;9.290;2022-11-09T07:05:37;98946.69;;;9.14;100.00
43153;BME280;28756;49.064;9.290;2022-11-09T07:08:10;98938.03;;;9.13;100.00
43153;BME280;28756;49.064;9.290;2022-11-09T07:10:36;98933.84;;;9.11;100.00
43153;BME280;28756;49.064;9.290;2022-11-09T07:13:06;98932.03;;;9.13;100.00
43153;BME280;28756;49.064;9.290;2022-11-09T07:15:34;98926.66;;;9.16;100.00
43153;BME280;28756;49.064;9.290;2022-11-09T07:18:02;98932.72;;;9.16;100.00
43153;BME280;28756;49.064;9.290;2022-11-09T07:20:28;98935.13;;;9.20;100.00
43153;BME280;28756;49.064;9.290;2022-11-09T07:22:54;98919.56;;;9.20;100.00
43153;BME280;28756;49.064;9.290;2022-11-09T07:25:20;98916.13;;;9.19;100.00
43153;BME280;28756;49.064;9.290;2022-11-09T07:27:46;98920.41;;;9.20;100.00
43153;BME280;28756;49.064;9.290;2022-11-09T07:30:13;98922.09;;;9.21;100.00
43153;BME280;28756;49.064;9.290;2022-11-09T07:32:39;98910.72;;;9.24;100.00
43153;BME280;28756;49.064;9.290;2022-11-09T07:35:06;98899.41;;;9.25;100.00
43153;BME280;28756;49.064;9.290;2022-11-09T07:37:32;98895.91;;;9.26;100.00
43153;BME280;28756;49.064;9.290;2022-11-09T07:39:58;98885.44;;;9.27;100.00
43153;BME280;28756;49.064;9.290;2022-11-09T07:42:24;98899.91;;;9.31;100.00
43153;BME280;28756;49.064;9.290;2022-11-09T07:44:52;98887.72;;;9.33;100.00
43153;BME280;28756;49.064;9.290;2022-11-09T07:47:19;98892.56;;;9.40;100.00
43153;BME280;28756;49.064;9.290;2022-11-09T07:49:47;98901.31;;;9.39;100.00
43153;BME280;28756;49.064;9.290;2022-11-09T07:52:13;98896.78;;;9.42;100.00
43153;BME280;28756;49.064;9.290;2022-11-09T07:54:39;98888.75;;;9.47;100.00
43153;BME280;28756;49.064;9.290;2022-11-09T07:57:06;98909.19;;;9.53;100.00
43153;BME280;28756;49.064;9.290;2022-11-09T07:59:32;98908.84;;;9.59;100.00
43153;BME280;28756;49.064;9.290;2022-11-09T08:01:58;98914.81;;;9.61;100.00
43153;BME280;28756;49.064;9.290;2022-11-09T08:04:24;98916.31;;;9.66;100.00
43153;BME280;28756;49.064;9.290;2022-11-09T08:07:00;98913.56;;;9.69;100.00
43153;BME280;28756;49.064;9.290;2022-11-09T08:09:28;98920.44;;;9.70;100.00
43153;BME280;28756;49.064;9.290;2022-11-09T08:11:55;98910.78;;;9.72;100.00
43153;BME280;28756;49.064;9.290;2022-11-09T08:14:21;98915.16;;;9.71;100.00
43153;BME280;28756;49.064;9.290;2022-11-09T08:16:47;98909.97;;;9.71;100.00
43153;BME280;28756;49.064;9.290;2022-11-09T08:19:13;98903.75;;;9.74;100.00
43153;BME280;28756;49.064;9.290;2022-11-09T08:21:38;98910.63;;;9.75;100.00
43153;BME280;28756;49.064;9.290;2022-11-09T08:24:05;98906.09;;;9.78;100.00
43153;BME280;28756;49.064;9.290;2022-11-09T08:26:31;98898.84;;;9.85;100.00
43153;BME280;28756;49.064;9.290;2022-11-09T08:28:57;98893.28;;;9.91;100.00
43153;BME280;28756;49.064;9.290;2022-11-09T08:31:23;98885.16;;;9.98;100.00
43153;BME280;28756;49.064;9.290;2022-11-09T08:33:52;98878.69;;;10.05;100.00
43153;BME280;28756;49.064;9.290;2022-11-09T08:36:18;98873.16;;;10.11;100.00
43153;BME280;28756;49.064;9.290;2022-11-09T08:38:44;98882.88;;;10.23;100.00
43153;BME280;28756;49.064;9.290;2022-11-09T08:41:12;98885.94;;;10.30;100.00
43153;BME280;28756;49.064;9.290;2022-11-09T08:43:38;98891.69;;;10.37;100.00
43153;BME280;28756;49.064;9.290;2022-11-09T08:46:04;98884.38;;;10.43;100.00
43153;BME280;28756;49.064;9.290;2022-11-09T08:48:30;98886.53;;;10.51;100.00
43153;BME280;28756;49.064;9.290;2022-11-09T08:50:58;98877.78;;;10.52;100.00
43153;BME280;28756;49.064;9.290;2022-11-09T08:53:27;98882.91;;;10.54;100.00
43153;BME280;28756;49.064;9.290;2022-11-09T08:55:53;98886.53;;;10.51;100.00
43153;BME280;28756;49.064;9.290;2022-11-09T08:58:19;98886.72;;;10.48;100.00
43153;BME280;28756;49.064;9.290;2022-11-09T09:00:46;98887.44;;;10.50;100.00
43153;BME280;28756;49.064;9.290;2022-11-09T09:03:12;98886.06;;;10.45;100.00
43153;BME280;28756;49.064;9.290;2022-11-09T09:05:38;98892.25;;;10.42;100.00
43153;BME280;28756;49.064;9.290;2022-11-09T09:08:05;98896.63;;;10.41;100.00
43153;BME280;28756;49.064;9.290;2022-11-09T09:10:32;98908.13;;;10.37;100.00
43153;BME280;28756;49.064;9.290;2022-11-09T09:13:01;98913.13;;;10.40;100.00
43153;BME280;28756;49.064;9.290;2022-11-09T09:15:27;98898.03;;;10.47;100.00
43153;BME280;28756;49.064;9.290;2022-11-09T09:17:52;98903.03;;;10.50;100.00
43153;BME280;28756;49.064;9.290;2022-11-09T09:20:18;98913.00;;;10.58;100.00
43153;BME280;28756;49.064;9.290;2022-11-09T09:22:44;98910.56;;;10.55;100.00
43153;BME280;28756;49.064;9.290;2022-11-09T09:25:10;98905.13;;;10.59;100.00
43153;BME280;28756;49.064;9.290;2022-11-09T09:27:36;98908.88;;;10.70;100.00
43153;BME280;28756;49.064;9.290;2022-11-09T09:30:03;98920.94;;;10.71;100.00
43153;BME280;28756;49.064;9.290;2022-11-09T09:32:29;98920.59;;;10.77;100.00
43153;BME280;28756;49.064;9.290;2022-11-09T09:34:55;98912.69;;;10.79;100.00
43153;BME280;28756;49.064;9.290;2022-11-09T09:37:21;98899.34;;;10.85;100.00
43153;BME280;28756;49.064;9.290;2022-11-09T09:39:47;98904.44;;;10.86;100.00
43153;BME280;28756;49.064;9.290;2022-11-09T09:42:24;98904.25;;;10.89;100.00
43153;BME280;28756;49.064;9.290;2022-11-09T09:51:00;98921.78;;;11.16;100.00
43153;BME280;28756;49.064;9.290;2022-11-09T09:56:40;98907.47;;;11.38;100.00
43153;BME280;28756;49.064;9.290;2022-11-09T09:59:27;98912.75;;;11.51;100.00
43153;BME280;28756;49.064;9.290;2022-11-09T10:01:58;98916.66;;;11.58;100.00
43153;BME280;28756;49.064;9.290;2022-11-09T10:04:35;98921.47;;;11.64;100.00
43153;BME280;28756;49.064;9.290;2022-11-09T10:07:36;98916.91;;;11.68;100.00
43153;BME280;28756;49.064;9.290;2022-11-09T10:16:40;98866.88;;;12.98;100.00
43153;BME280;28756;49.064;9.290;2022-11-09T10:20:23;98857.38;;;13.23;100.00
43153;BME280;28756;49.064;9.290;2022-11-09T10:25:38;98858.78;;;13.66;100.00
43153;BME280;28756;49.064;9.290;2022-11-09T10:28:11;98841.75;;;13.60;100.00
43153;BME280;28756;49.064;9.290;2022-11-09T10:30:38;98848.06;;;13.45;100.00
43153;BME280;28756;49.064;9.290;2022-11-09T10:35:48;98865.44;;;12.94;100.00
43153;BME280;28756;49.064;9.290;2022-11-09T10:38:28;98863.13;;;12.76;100.00
43153;BME280;28756;49.064;9.290;2022-11-09T10:41:28;98864.97;;;12.61;100.00
43153;BME280;28756;49.064;9.290;2022-11-09T10:43:56;98857.25;;;12.60;100.00
43153;BME280;28756;49.064;9.290;2022-11-09T10:46:22;98864.00;;;12.50;100.00
43153;BME280;28756;49.064;9.290;2022-11-09T10:48:49;98857.75;;;12.52;100.00
43153;BME280;28756;49.064;9.290;2022-11-09T10:51:39;98858.38;;;12.56;100.00
43153;BME280;28756;49.064;9.290;2022-11-09T10:54:21;98861.34;;;12.77;100.00
43153;BME280;28756;49.064;9.290;2022-11-09T10:57:19;98858.94;;;12.74;100.00
43153;BME280;28756;49.064;9.290;2022-11-09T10:59:56;98858.22;;;12.72;100.00
43153;BME280;28756;49.064;9.290;2022-11-09T11:07:28;98851.19;;;12.72;100.00
43153;BME280;28756;49.064;9.290;2022-11-09T11:09:54;98853.94;;;12.84;100.00
43153;BME280;28756;49.064;9.290;2022-11-09T11:12:20;98846.53;;;12.77;100.00
43153;BME280;28756;49.064;9.290;2022-11-09T11:14:47;98846.53;;;12.77;100.00
43153;BME280;28756;49.064;9.290;2022-11-09T11:17:39;98852.13;;;12.71;100.00
43153;BME280;28756;49.064;9.290;2022-11-09T11:20:33;98852.69;;;12.76;100.00
43153;BME280;28756;49.064;9.290;2022-11-09T11:23:18;98845.38;;;12.82;100.00
43153;BME280;28756;49.064;9.290;2022-11-09T11:26:11;98838.91;;;12.74;100.00
43153;BME280;28756;49.064;9.290;2022-11-09T11:28:55;98834.00;;;12.83;100.00
43153;BME280;28756;49.064;9.290;2022-11-09T11:31:24;98838.41;;;12.82;100.00
43153;BME280;28756;49.064;9.290;2022-11-09T11:33:49;98829.22;;;12.89;100.00
43153;BME280;28756;49.064;9.290;2022-11-09T11:36:27;98832.31;;;12.82;100.00
43153;BME280;28756;49.064;9.290;2022-11-09T11:39:26;98828.47;;;12.87;100.00
43153;BME280;28756;49.064;9.290;2022-11-09T11:45:02;98818.13;;;12.99;100.00
43153;BME280;28756;49.064;9.290;2022-11-09T11:47:53;98816.03;;;13.04;100.00
43153;BME280;28756;49.064;9.290;2022-11-09T11:50:38;98818.22;;;13.10;100.00
43153;BME280;28756;49.064;9.290;2022-11-09T11:56:37;98817.72;;;13.05;100.00
43153;BME280;28756;49.064;9.290;2022-11-09T11:59:45;98821.56;;;12.99;100.00
43153;BME280;28756;49.064;9.290;2022-11-09T12:05:54;98811.03;;;13.01;100.00
43153;BME280;28756;49.064;9.290;2022-11-09T12:09:06;98816.97;;;13.03;100.00
43153;BME280;28756;49.064;9.290;2022-11-09T12:14:34;98816.84;;;13.17;100.00
43153;BME280;28756;49.064;9.290;2022-11-09T12:29:21;98803.34;;;13.23;100.00
43153;BME280;28756;49.064;9.290;2022-11-09T12:34:52;98800.88;;;13.22;100.00
43153;BME280;28756;49.064;9.290;2022-11-09T12:37:32;98792.91;;;13.23;100.00
43153;BME280;28756;49.064;9.290;2022-11-09T12:40:25;98800.97;;;13.33;100.00
43153;BME280;28756;49.064;9.290;2022-11-09T12:45:38;98791.88;;;13.39;100.00
43153;BME280;28756;49.064;9.290;2022-11-09T12:48:29;98797.59;;;13.31;100.00
43153;BME280;28756;49.064;9.290;2022-11-09T12:50:56;98789.03;;;13.29;100.00
43153;BME280;28756;49.064;9.290;2022-11-09T12:53:31;98798.44;;;13.32;100.00
43153;BME280;28756;49.064;9.290;2022-11-09T12:56:15;98791.78;;;13.27;100.00
43153;BME280;28756;49.064;9.290;2022-11-09T12:58:44;98806.06;;;13.35;100.00
43153;BME280;28756;49.064;9.290;2022-11-09T13:01:16;98803.66;;;13.32;100.00
43153;BME280;28756;49.064;9.290;2022-11-09T13:04:02;98797.72;;;13.30;100.00
43153;BME280;28756;49.064;9.290;2022-11-09T13:06:31;98803.03;;;13.28;100.00
43153;BME280;28756;49.064;9.290;2022-11-09T13:09:05;98799.31;;;13.19;100.00
43153;BME280;28756;49.064;9.290;2022-11-09T13:11:41;98809.44;;;13.24;100.00
43153;BME280;28756;49.064;9.290;2022-11-09T13:17:00;98815.00;;;13.06;100.00
43153;BME280;28756;49.064;9.290;2022-11-09T13:24:58;98818.03;;;13.00;100.00
43153;BME280;28756;49.064;9.290;2022-11-09T13:27:48;98820.41;;;13.03;100.00
43153;BME280;28756;49.064;9.290;2022-11-09T13:38:19;98828.56;;;12.99;100.00
43153;BME280;28756;49.064;9.290;2022-11-09T13:43:30;98828.56;;;12.99;100.00
43153;BME280;28756;49.064;9.290;2022-11-09T13:46:03;98824.50;;;12.94;100.00
43153;BME280;28756;49.064;9.290;2022-11-09T13:48:41;98834.19;;;12.92;100.00
43153;BME280;28756;49.064;9.290;2022-11-09T13:54:32;98852.03;;;12.99;100.00
43153;BME280;28756;49.064;9.290;2022-11-09T13:57:02;98857.38;;;12.97;100.00
43153;BME280;28756;49.064;9.290;2022-11-09T13:59:44;98860.28;;;12.92;100.00
43153;BME280;28756;49.064;9.290;2022-11-09T14:02:23;98863.03;;;12.91;100.00
43153;BME280;28756;49.064;9.290;2022-11-09T14:04:49;98860.59;;;12.88;100.00
43153;BME280;28756;49.064;9.290;2022-11-09T14:07:27;98858.94;;;12.87;100.00
43153;BME280;28756;49.064;9.290;2022-11-09T14:10:17;98865.31;;;12.83;100.00
43153;BME280;28756;49.064;9.290;2022-11-09T14:16:30;98875.22;;;12.77;100.00
43153;BME280;28756;49.064;9.290;2022-11-09T14:21:55;98873.13;;;12.70;100.00
43153;BME280;28756;49.064;9.290;2022-11-09T14:24:30;98878.34;;;12.70;100.00
43153;BME280;28756;49.064;9.290;2022-11-09T14:29:33;98880.44;;;12.64;100.00
43153;BME280;28756;49.064;9.290;2022-11-09T14:32:02;98886.78;;;12.60;100.00
43153;BME280;28756;49.064;9.290;2022-11-09T14:34:40;98891.34;;;12.57;100.00
43153;BME280;28756;49.064;9.290;2022-11-09T14:37:06;98891.56;;;12.54;100.00
43153;BME280;28756;49.064;9.290;2022-11-09T14:39:41;98891.66;;;12.52;100.00